createdAt,value
2022-12-31T00:01:35.219Z,99.96
2022-12-31T00:03:38.753Z,99.89
2022-12-31T00:05:40.402Z,99.70
2022-12-31T00:09:42.674Z,99.22
2022-12-31T00:11:44.967Z,99.62
2022-12-31T00:13:47.089Z,99.26
2022-12-31T00:15:48.702Z,99.17
2022-12-31T00:17:50.425Z,99.11
2022-12-31T00:19:52.126Z,99.03
2022-12-31T00:21:53.838Z,98.84
2022-12-31T00:23:55.942Z,99.24
2022-12-31T00:26:03.623Z,99.22
2022-12-31T00:28:05.628Z,98.68
2022-12-31T00:30:08.080Z,98.81
2022-12-31T00:32:10.715Z,98.79
2022-12-31T00:34:12.246Z,99.34
2022-12-31T00:36:16.301Z,99.49
2022-12-31T00:38:18.244Z,99.60
2022-12-31T00:40:19.976Z,98.88
2022-12-31T00:42:21.734Z,99.23
2022-12-31T00:44:23.463Z,99.19
2022-12-31T00:46:25.794Z,99.28
2022-12-31T00:48:28.172Z,99.27
2022-12-31T00:50:29.897Z,99.03
2022-12-31T00:52:31.862Z,99.62
2022-12-31T00:54:34.128Z,98.87
2022-12-31T00:56:36.208Z,99.20
2022-12-31T00:58:38.337Z,99.29
2022-12-31T01:00:40.666Z,98.79
2022-12-31T01:02:42.448Z,98.80
2022-12-31T01:04:44.571Z,99.20
2022-12-31T01:06:46.916Z,99.33
2022-12-31T01:08:49.571Z,99.19
2022-12-31T01:11:09.825Z,99.24
2022-12-31T01:13:11.775Z,99.24
2022-12-31T01:15:13.711Z,99.65
2022-12-31T01:17:17.170Z,99.35
2022-12-31T01:19:25.384Z,98.85
2022-12-31T01:21:27.888Z,99.39
2022-12-31T01:23:30.573Z,99.60
2022-12-31T01:25:36.272Z,99.38
2022-12-31T01:27:38.361Z,99.12
2022-12-31T01:29:40.135Z,99.44
2022-12-31T01:31:42.897Z,99.47
2022-12-31T01:33:45.129Z,99.19
2022-12-31T01:35:47.343Z,99.29
2022-12-31T01:37:50.844Z,98.90
2022-12-31T01:39:52.714Z,99.20
2022-12-31T01:41:57.018Z,98.86
2022-12-31T01:44:23.332Z,98.56
2022-12-31T01:46:38.890Z,98.87
2022-12-31T01:48:41.218Z,99.15
2022-12-31T01:50:44.238Z,98.58
2022-12-31T01:52:50.003Z,98.72
2022-12-31T01:55:00.219Z,98.59
2022-12-31T01:57:05.856Z,98.36
2022-12-31T01:59:10.623Z,98.51
2022-12-31T02:01:19.573Z,99.13
2022-12-31T02:03:27.052Z,98.80
2022-12-31T02:05:48.913Z,98.96
2022-12-31T02:07:53.334Z,98.66
2022-12-31T02:09:55.075Z,98.89
2022-12-31T02:11:56.939Z,98.77
2022-12-31T02:14:04.378Z,98.50
2022-12-31T02:16:37.948Z,98.82
2022-12-31T02:18:52.866Z,98.50
2022-12-31T02:21:12.905Z,97.92
2022-12-31T02:23:39.189Z,98.72
2022-12-31T02:26:11.491Z,98.17
2022-12-31T02:28:44.025Z,97.16
2022-12-31T02:30:48.733Z,97.15
2022-12-31T02:33:14.991Z,96.51
2022-12-31T02:35:30.719Z,96.84
2022-12-31T02:37:35.582Z,97.00
2022-12-31T02:39:38.401Z,96.17
2022-12-31T02:41:51.821Z,95.87
2022-12-31T02:43:53.411Z,95.80
2022-12-31T02:46:30.102Z,95.52
2022-12-31T02:49:24.548Z,95.14
2022-12-31T02:51:28.856Z,95.26
2022-12-31T02:53:49.179Z,95.35
2022-12-31T02:55:59.922Z,94.63
2022-12-31T02:58:50.753Z,94.71
2022-12-31T03:01:17.191Z,94.64
2022-12-31T03:03:20.162Z,94.19
2022-12-31T03:05:26.748Z,94.32
2022-12-31T03:07:31.930Z,94.35
2022-12-31T03:09:34.673Z,94.02
2022-12-31T03:11:54.700Z,93.45
2022-12-31T03:13:56.711Z,93.48
2022-12-31T03:15:58.270Z,92.88
2022-12-31T03:18:02.753Z,93.13
2022-12-31T03:20:23.495Z,93.36
2022-12-31T03:22:28.857Z,93.22
2022-12-31T03:24:49.698Z,92.90
2022-12-31T03:26:51.477Z,93.05
2022-12-31T03:28:53.144Z,92.73
2022-12-31T03:30:58.600Z,92.81
2022-12-31T03:33:01.196Z,92.82
2022-12-31T03:35:03.317Z,93.04
2022-12-31T03:37:04.915Z,93.15
2022-12-31T03:39:06.503Z,93.42
2022-12-31T03:41:11.153Z,92.80
2022-12-31T03:43:12.919Z,92.71
2022-12-31T03:45:14.972Z,92.50
2022-12-31T03:47:16.765Z,92.33
2022-12-31T03:49:18.537Z,92.38
2022-12-31T03:51:20.234Z,91.78
2022-12-31T03:53:22.236Z,91.43
2022-12-31T03:55:24.345Z,91.86
2022-12-31T03:57:25.961Z,92.41
2022-12-31T03:59:27.634Z,92.32
2022-12-31T04:01:29.922Z,91.86
2022-12-31T04:03:31.663Z,91.13
2022-12-31T04:05:33.825Z,91.47
2022-12-31T04:07:35.740Z,91.14
2022-12-31T04:09:37.404Z,91.94
2022-12-31T04:11:39.010Z,91.80
2022-12-31T04:13:40.534Z,91.60
2022-12-31T04:15:42.158Z,91.00
2022-12-31T04:17:43.868Z,91.59
2022-12-31T04:19:45.515Z,92.10
2022-12-31T04:21:47.213Z,91.81
2022-12-31T04:23:49.265Z,91.69
2022-12-31T04:25:51.152Z,91.40
2022-12-31T04:27:52.746Z,91.67
2022-12-31T04:29:54.252Z,91.44
2022-12-31T04:31:55.849Z,91.55
2022-12-31T04:33:57.664Z,91.70
2022-12-31T04:36:07.731Z,91.58
2022-12-31T04:38:09.698Z,91.65
2022-12-31T04:40:11.636Z,91.91
2022-12-31T04:42:13.261Z,91.63
2022-12-31T04:44:15.346Z,91.21
2022-12-31T04:46:19.592Z,91.59
2022-12-31T04:48:21.445Z,91.57
2022-12-31T04:50:24.815Z,91.82
2022-12-31T04:52:26.381Z,90.88
2022-12-31T04:54:27.906Z,90.69
2022-12-31T04:56:30.088Z,90.56
2022-12-31T04:58:31.942Z,90.90
2022-12-31T05:00:33.554Z,90.77
2022-12-31T05:02:35.386Z,90.59
2022-12-31T05:04:37.197Z,90.26
2022-12-31T05:06:38.856Z,90.44
2022-12-31T05:08:41.794Z,90.33
2022-12-31T05:10:45.928Z,90.32
2022-12-31T05:12:47.776Z,90.43
2022-12-31T05:14:49.436Z,90.43
2022-12-31T05:16:51.166Z,90.17
2022-12-31T05:18:52.769Z,90.34
2022-12-31T05:20:55.776Z,90.22
2022-12-31T05:22:58.585Z,89.87
2022-12-31T05:25:01.173Z,90.32
2022-12-31T05:27:03.139Z,89.77
2022-12-31T05:29:04.771Z,89.82
2022-12-31T05:31:06.429Z,89.22
2022-12-31T05:33:08.436Z,89.51
2022-12-31T05:35:10.252Z,89.33
2022-12-31T05:37:12.024Z,89.29
2022-12-31T05:39:13.668Z,88.99
2022-12-31T05:41:15.288Z,89.43
2022-12-31T05:43:16.829Z,90.02
2022-12-31T05:45:20.417Z,90.09
2022-12-31T05:47:25.173Z,89.55
2022-12-31T05:49:26.750Z,89.53
2022-12-31T05:51:28.372Z,89.40
2022-12-31T05:53:29.903Z,89.36
2022-12-31T05:55:31.568Z,89.39
2022-12-31T05:57:33.147Z,89.47
2022-12-31T05:59:35.165Z,89.00
2022-12-31T06:01:36.701Z,89.16
2022-12-31T06:03:38.998Z,89.38
2022-12-31T06:05:43.707Z,89.36
2022-12-31T06:07:45.395Z,89.34
2022-12-31T06:09:46.906Z,88.73
2022-12-31T06:11:48.573Z,88.55
2022-12-31T06:13:50.169Z,88.38
2022-12-31T06:15:51.745Z,88.35
2022-12-31T06:17:53.520Z,88.53
2022-12-31T06:19:55.078Z,88.18
2022-12-31T06:21:57.041Z,88.81
2022-12-31T06:23:58.894Z,88.67
2022-12-31T06:26:05.019Z,87.95
2022-12-31T06:28:06.620Z,88.27
2022-12-31T06:30:09.001Z,87.66
2022-12-31T06:32:10.459Z,87.99
2022-12-31T06:34:12.556Z,88.27
2022-12-31T06:36:15.805Z,88.23
2022-12-31T06:38:17.765Z,87.98
2022-12-31T06:40:19.414Z,88.13
2022-12-31T06:42:20.968Z,87.86
2022-12-31T06:44:22.828Z,87.95
2022-12-31T06:46:24.408Z,87.84
2022-12-31T06:48:26.247Z,87.49
2022-12-31T06:50:28.028Z,87.60
2022-12-31T06:52:29.588Z,87.36
2022-12-31T06:54:31.692Z,87.77
2022-12-31T06:56:35.513Z,87.24
2022-12-31T06:58:37.732Z,86.91
2022-12-31T07:00:50.447Z,87.10
2022-12-31T07:03:15.699Z,86.72
2022-12-31T07:05:46.433Z,86.52
2022-12-31T07:07:56.810Z,86.49
2022-12-31T07:10:45.951Z,86.71
2022-12-31T07:13:19.165Z,86.75
2022-12-31T07:15:43.675Z,86.38
2022-12-31T07:17:52.563Z,87.10
2022-12-31T07:20:03.332Z,86.89
2022-12-31T07:22:09.873Z,86.95
2022-12-31T07:24:12.866Z,86.57
2022-12-31T07:26:33.610Z,86.91
2022-12-31T07:28:53.156Z,86.49
2022-12-31T07:31:07.454Z,86.51
2022-12-31T07:33:21.736Z,86.67
2022-12-31T07:35:44.658Z,86.85
2022-12-31T07:37:58.659Z,87.19
2022-12-31T07:40:15.474Z,87.73
2022-12-31T07:42:41.439Z,87.51
2022-12-31T07:45:04.016Z,87.66
2022-12-31T07:47:18.583Z,86.93
2022-12-31T07:49:20.472Z,86.68
2022-12-31T07:51:22.381Z,86.60
2022-12-31T07:53:25.610Z,87.06
2022-12-31T07:55:27.221Z,87.13
2022-12-31T07:57:41.035Z,86.44
2022-12-31T08:00:01.550Z,85.92
2022-12-31T08:02:24.703Z,86.37
2022-12-31T08:04:44.668Z,85.57
2022-12-31T08:07:01.929Z,86.04
2022-12-31T08:09:15.124Z,85.69
2022-12-31T08:11:47.201Z,85.42
2022-12-31T08:13:49.138Z,85.90
2022-12-31T08:15:51.496Z,86.10
2022-12-31T08:17:53.096Z,85.71
2022-12-31T08:19:55.131Z,85.90
2022-12-31T08:22:13.221Z,85.53
2022-12-31T08:24:51.023Z,85.48
2022-12-31T08:27:20.241Z,85.24
2022-12-31T08:29:29.348Z,85.14
2022-12-31T08:31:41.142Z,85.21
2022-12-31T08:34:25.231Z,85.27
2022-12-31T08:36:32.024Z,84.77
2022-12-31T08:38:54.919Z,85.29
2022-12-31T08:41:05.761Z,84.82
2022-12-31T08:43:31.125Z,84.24
2022-12-31T08:45:43.062Z,85.06
2022-12-31T08:48:00.028Z,84.59
2022-12-31T08:50:02.311Z,84.57
2022-12-31T08:52:04.171Z,84.73
2022-12-31T08:54:06.118Z,85.02
2022-12-31T08:56:21.203Z,84.62
2022-12-31T08:58:59.148Z,84.55
2022-12-31T09:01:01.427Z,84.68
2022-12-31T09:03:26.080Z,84.31
2022-12-31T09:06:02.601Z,83.66
2022-12-31T09:08:27.667Z,83.42
2022-12-31T09:11:04.326Z,82.75
2022-12-31T09:13:42.180Z,82.78
2022-12-31T09:16:01.448Z,83.42
2022-12-31T09:18:03.440Z,83.53
2022-12-31T09:20:06.246Z,81.75
2022-12-31T09:22:10.310Z,82.04
2022-12-31T09:24:16.069Z,82.67
2022-12-31T09:26:49.499Z,82.50
2022-12-31T09:29:09.714Z,82.51
2022-12-31T09:31:19.067Z,82.52
2022-12-31T09:33:58.976Z,81.92
2022-12-31T09:36:06.215Z,82.32
2022-12-31T09:38:22.551Z,82.65
2022-12-31T09:40:50.664Z,82.13
2022-12-31T09:43:16.802Z,82.47
2022-12-31T09:45:37.030Z,82.08
2022-12-31T09:48:14.527Z,82.14
2022-12-31T09:51:11.499Z,81.50
2022-12-31T09:53:52.200Z,81.95
2022-12-31T09:56:15.763Z,81.47
2022-12-31T09:58:50.971Z,81.46
2022-12-31T10:01:12.588Z,80.75
2022-12-31T10:03:31.939Z,80.44
2022-12-31T10:05:55.242Z,80.83
2022-12-31T10:08:28.586Z,80.24
2022-12-31T10:10:33.346Z,80.63
2022-12-31T10:12:53.847Z,79.85
2022-12-31T10:15:01.308Z,79.71
2022-12-31T10:17:12.253Z,79.80
2022-12-31T10:19:44.012Z,79.16
2022-12-31T10:22:16.491Z,79.90
2022-12-31T10:24:36.788Z,78.85
2022-12-31T10:27:04.469Z,80.31
2022-12-31T10:29:14.907Z,78.23
2022-12-31T10:31:35.079Z,77.84
2022-12-31T10:33:45.224Z,78.08
2022-12-31T10:36:18.075Z,77.15
2022-12-31T10:38:22.711Z,74.60
2022-12-31T10:40:44.701Z,75.41
2022-12-31T10:43:05.323Z,75.47
2022-12-31T10:45:44.820Z,75.49
2022-12-31T10:48:24.150Z,76.59
2022-12-31T10:50:57.212Z,75.96
2022-12-31T10:53:18.182Z,75.72
2022-12-31T10:55:41.483Z,75.18
2022-12-31T10:57:51.743Z,74.81
2022-12-31T11:00:03.749Z,75.10
2022-12-31T11:02:36.682Z,74.50
2022-12-31T11:05:04.224Z,74.16
2022-12-31T11:07:23.608Z,72.79
2022-12-31T11:09:42.400Z,71.07
2022-12-31T11:11:58.472Z,71.50
2022-12-31T11:14:28.899Z,70.39
2022-12-31T11:16:54.018Z,69.38
2022-12-31T11:19:01.886Z,69.07
2022-12-31T11:21:30.152Z,69.68
2022-12-31T11:24:09.945Z,68.33
2022-12-31T11:26:12.105Z,67.03
2022-12-31T11:28:20.925Z,65.46
2022-12-31T11:30:36.112Z,63.81
2022-12-31T11:32:52.258Z,61.52
2022-12-31T11:34:59.992Z,63.63
2022-12-31T11:37:30.466Z,62.94
2022-12-31T11:40:04.451Z,61.52
2022-12-31T11:42:39.812Z,61.31
2022-12-31T11:45:01.080Z,61.63
2022-12-31T11:47:15.869Z,63.06
2022-12-31T11:49:32.965Z,63.99
2022-12-31T11:51:56.913Z,64.63
2022-12-31T11:54:17.326Z,63.90
2022-12-31T11:56:23.181Z,63.26
2022-12-31T11:58:28.621Z,64.70
2022-12-31T12:00:31.993Z,66.66
2022-12-31T12:02:37.264Z,65.54
2022-12-31T12:04:39.191Z,65.85
2022-12-31T12:06:43.510Z,66.12
2022-12-31T12:08:46.203Z,67.52
2022-12-31T12:10:52.438Z,66.80
2022-12-31T12:12:56.522Z,68.13
2022-12-31T12:14:58.063Z,69.01
2022-12-31T12:17:05.384Z,68.25
2022-12-31T12:19:17.833Z,68.77
2022-12-31T12:21:25.146Z,68.92
2022-12-31T12:23:27.642Z,69.23
2022-12-31T12:25:43.219Z,68.77
2022-12-31T12:27:44.939Z,68.20
2022-12-31T12:29:47.358Z,68.03
2022-12-31T12:32:04.635Z,68.31
2022-12-31T12:34:22.288Z,68.26
2022-12-31T12:36:24.328Z,68.66
2022-12-31T12:38:25.877Z,66.80
2022-12-31T12:40:33.912Z,66.60
2022-12-31T12:42:36.178Z,66.81
2022-12-31T12:44:38.699Z,67.65
2022-12-31T12:46:52.070Z,67.26
2022-12-31T12:48:56.693Z,67.61
2022-12-31T12:51:00.261Z,67.75
2022-12-31T12:53:41.965Z,67.65
2022-12-31T12:55:46.268Z,66.67
2022-12-31T12:58:19.343Z,68.10
2022-12-31T13:00:29.803Z,67.98
2022-12-31T13:02:55.381Z,67.77
2022-12-31T13:05:28.772Z,68.71
2022-12-31T13:07:44.664Z,68.26
2022-12-31T13:09:55.209Z,67.12
2022-12-31T13:12:07.799Z,66.56
2022-12-31T13:14:29.691Z,66.35
2022-12-31T13:16:51.061Z,66.47
2022-12-31T13:19:11.289Z,67.68
2022-12-31T13:21:31.544Z,66.87
2022-12-31T13:23:53.548Z,66.89
2022-12-31T13:26:08.072Z,67.62
2022-12-31T13:28:11.863Z,68.41
2022-12-31T13:30:27.966Z,67.93
2022-12-31T13:32:42.699Z,68.24
2022-12-31T13:34:48.238Z,68.68
2022-12-31T13:36:52.860Z,69.02
2022-12-31T13:38:57.937Z,68.93
2022-12-31T13:41:08.975Z,68.90
2022-12-31T13:43:51.106Z,68.09
2022-12-31T13:46:34.701Z,68.01
2022-12-31T13:48:44.458Z,68.16
2022-12-31T13:51:03.140Z,68.01
2022-12-31T13:53:35.640Z,67.29
2022-12-31T13:55:46.256Z,68.04
2022-12-31T13:58:16.841Z,68.39
2022-12-31T14:00:24.379Z,68.60
2022-12-31T14:02:38.760Z,67.93
2022-12-31T14:04:58.424Z,67.82
2022-12-31T14:07:20.473Z,67.54
2022-12-31T14:09:27.671Z,67.68
2022-12-31T14:12:04.516Z,67.81
2022-12-31T14:14:18.198Z,67.58
2022-12-31T14:16:24.690Z,68.24
2022-12-31T14:18:40.489Z,67.53
2022-12-31T14:20:57.858Z,67.87
2022-12-31T14:23:39.937Z,68.09
2022-12-31T14:25:47.765Z,68.11
2022-12-31T14:27:53.291Z,68.59
2022-12-31T14:29:59.384Z,68.85
2022-12-31T14:32:01.315Z,69.04
2022-12-31T14:34:47.701Z,69.03
2022-12-31T14:37:03.326Z,68.43
2022-12-31T14:39:25.005Z,69.20
2022-12-31T14:41:53.135Z,69.28
2022-12-31T14:44:07.287Z,69.60
2022-12-31T14:46:33.447Z,68.75
2022-12-31T14:49:00.462Z,68.95
2022-12-31T14:51:03.979Z,69.27
2022-12-31T14:53:06.195Z,68.92
2022-12-31T14:55:08.731Z,68.92
2022-12-31T14:57:16.418Z,68.87
2022-12-31T14:59:29.759Z,68.84
2022-12-31T15:01:31.383Z,68.90
2022-12-31T15:03:42.981Z,68.31
2022-12-31T15:06:06.678Z,68.47
2022-12-31T15:08:26.023Z,68.88
2022-12-31T15:10:40.255Z,68.26
2022-12-31T15:12:50.826Z,67.92
2022-12-31T15:15:19.977Z,67.27
2022-12-31T15:17:34.779Z,67.82
2022-12-31T15:20:03.345Z,67.53
2022-12-31T15:22:23.660Z,67.59
2022-12-31T15:24:27.232Z,67.44
2022-12-31T15:26:32.135Z,67.67
2022-12-31T15:28:35.173Z,67.15
2022-12-31T15:30:47.447Z,67.20
2022-12-31T15:32:49.200Z,67.24
2022-12-31T15:35:02.604Z,67.54
2022-12-31T15:37:07.263Z,67.07
2022-12-31T15:39:11.824Z,68.17
2022-12-31T15:41:24.908Z,67.70
2022-12-31T15:43:48.412Z,68.25
2022-12-31T15:45:52.219Z,68.61
2022-12-31T15:47:58.152Z,68.50
2022-12-31T15:50:04.073Z,68.69
2022-12-31T15:52:18.138Z,69.21
2022-12-31T15:54:29.943Z,70.00
2022-12-31T15:56:37.468Z,69.54
2022-12-31T15:58:39.904Z,69.45
2022-12-31T16:01:04.016Z,69.16
2022-12-31T16:03:19.879Z,69.77
2022-12-31T16:05:27.043Z,69.77
2022-12-31T16:07:29.537Z,69.83
2022-12-31T16:09:34.687Z,70.20
2022-12-31T16:11:41.528Z,69.23
2022-12-31T16:13:47.103Z,69.20
2022-12-31T16:15:53.060Z,69.13
2022-12-31T16:18:22.522Z,69.52
2022-12-31T16:20:27.342Z,68.88
2022-12-31T16:22:39.507Z,68.83
2022-12-31T16:25:02.890Z,68.86
2022-12-31T16:27:07.715Z,68.75
2022-12-31T16:29:18.489Z,69.33
2022-12-31T16:31:21.038Z,69.72
2022-12-31T16:33:22.785Z,69.28
2022-12-31T16:35:28.896Z,69.57
2022-12-31T16:37:30.798Z,69.83
2022-12-31T16:39:39.180Z,69.74
2022-12-31T16:41:42.054Z,69.75
2022-12-31T16:43:44.526Z,70.09
2022-12-31T16:45:46.161Z,70.75
2022-12-31T16:47:48.387Z,71.25
2022-12-31T16:50:03.872Z,71.28
2022-12-31T16:52:09.325Z,71.01
2022-12-31T16:54:30.437Z,71.48
2022-12-31T16:56:37.197Z,71.41
2022-12-31T16:58:45.269Z,71.24
2022-12-31T17:00:49.673Z,71.63
2022-12-31T17:03:08.707Z,72.02
2022-12-31T17:05:25.121Z,71.71
2022-12-31T17:07:26.665Z,71.43
2022-12-31T17:09:36.673Z,70.41
2022-12-31T17:12:07.649Z,70.64
2022-12-31T17:14:09.290Z,70.83
2022-12-31T17:16:11.277Z,71.05
2022-12-31T17:18:37.804Z,71.32
2022-12-31T17:20:39.415Z,71.57
2022-12-31T17:22:43.358Z,71.02
2022-12-31T17:24:47.994Z,71.00
2022-12-31T17:26:51.661Z,70.65
2022-12-31T17:28:55.578Z,71.20
2022-12-31T17:31:02.474Z,70.88
2022-12-31T17:33:26.639Z,71.26
2022-12-31T17:35:36.826Z,71.31
2022-12-31T17:37:38.390Z,71.13
2022-12-31T17:39:43.430Z,71.37
2022-12-31T17:41:46.367Z,71.72
2022-12-31T17:43:53.136Z,71.17
2022-12-31T17:45:54.829Z,71.13
2022-12-31T17:47:59.594Z,71.13
2022-12-31T17:50:08.692Z,70.61
2022-12-31T17:52:15.278Z,71.17
2022-12-31T17:54:17.983Z,70.63
2022-12-31T17:56:20.628Z,70.93
2022-12-31T17:58:31.996Z,69.99
2022-12-31T18:00:36.589Z,70.39
2022-12-31T18:02:38.332Z,70.81
2022-12-31T18:04:39.944Z,70.35
2022-12-31T18:06:42.285Z,69.30
2022-12-31T18:08:43.936Z,69.32
2022-12-31T18:10:45.642Z,68.88
2022-12-31T18:12:49.328Z,68.77
2022-12-31T18:14:50.892Z,68.93
2022-12-31T18:16:52.940Z,68.16
2022-12-31T18:18:57.499Z,67.43
2022-12-31T18:21:03.052Z,66.59
2022-12-31T18:23:12.995Z,65.91
2022-12-31T18:25:21.350Z,65.77
2022-12-31T18:27:25.738Z,62.61
2022-12-31T18:29:27.696Z,63.04
2022-12-31T18:31:31.029Z,61.25
2022-12-31T18:33:33.442Z,60.95
2022-12-31T18:37:57.922Z,60.83
2022-12-31T18:40:00.219Z,60.28
2022-12-31T18:42:05.337Z,60.31
2022-12-31T18:44:11.003Z,59.93
2022-12-31T18:46:14.953Z,59.56
2022-12-31T18:48:18.570Z,59.15
2022-12-31T18:50:22.998Z,58.67
2022-12-31T18:52:24.992Z,58.23
2022-12-31T18:54:26.566Z,58.68
2022-12-31T18:56:28.365Z,58.40
2022-12-31T18:58:30.541Z,58.47
2022-12-31T19:00:33.797Z,58.72
2022-12-31T19:02:36.375Z,59.64
2022-12-31T19:04:38.889Z,60.13
2022-12-31T19:06:41.280Z,60.51
2022-12-31T19:08:43.978Z,61.00
2022-12-31T19:10:47.194Z,61.17
2022-12-31T19:12:49.194Z,61.98
2022-12-31T19:14:50.721Z,60.90
2022-12-31T19:16:54.384Z,61.58
2022-12-31T19:18:56.052Z,61.96
2022-12-31T19:20:57.628Z,62.04
2022-12-31T19:22:59.744Z,62.18
2022-12-31T19:25:01.368Z,63.16
2022-12-31T19:27:02.942Z,63.46
2022-12-31T19:29:04.517Z,63.22
2022-12-31T19:31:06.113Z,62.08
2022-12-31T19:33:07.726Z,62.10
2022-12-31T19:35:12.952Z,61.45
2022-12-31T19:37:15.429Z,62.21
2022-12-31T19:39:20.098Z,62.71
2022-12-31T19:41:21.728Z,61.91
2022-12-31T19:43:23.615Z,63.03
2022-12-31T19:45:27.676Z,62.36
2022-12-31T19:47:29.198Z,62.08
2022-12-31T19:49:30.861Z,62.39
2022-12-31T19:51:32.449Z,62.30
2022-12-31T19:53:33.986Z,62.16
2022-12-31T19:55:35.624Z,62.32
2022-12-31T19:57:37.836Z,61.82
2022-12-31T19:59:39.515Z,62.55
2022-12-31T20:01:41.248Z,62.86
2022-12-31T20:03:43.190Z,62.03
2022-12-31T20:05:46.082Z,62.71
2022-12-31T20:07:47.794Z,62.24
2022-12-31T20:09:50.130Z,61.34
2022-12-31T20:11:51.846Z,61.19
2022-12-31T20:13:53.868Z,60.21
2022-12-31T20:15:55.580Z,61.26
2022-12-31T20:17:58.373Z,60.37
2022-12-31T20:19:59.981Z,59.52
2022-12-31T20:22:01.571Z,59.63
2022-12-31T20:24:03.196Z,58.82
2022-12-31T20:26:05.227Z,58.75
2022-12-31T20:28:06.783Z,58.90
2022-12-31T20:30:09.939Z,57.74
2022-12-31T20:32:11.475Z,57.88
2022-12-31T20:34:13.287Z,57.52
2022-12-31T20:36:16.729Z,57.36
2022-12-31T20:38:18.398Z,57.18
2022-12-31T20:40:20.151Z,58.43
2022-12-31T20:42:21.862Z,57.81
2022-12-31T20:44:23.436Z,57.38
2022-12-31T20:46:27.843Z,58.39
2022-12-31T20:48:31.307Z,57.37
2022-12-31T20:50:33.018Z,58.53
2022-12-31T20:52:34.588Z,58.55
2022-12-31T20:54:37.373Z,58.68
2022-12-31T20:56:40.404Z,59.59
2022-12-31T20:58:42.009Z,60.16
2022-12-31T21:00:52.217Z,60.22
2022-12-31T21:03:00.665Z,60.59
2022-12-31T21:05:10.623Z,60.53
2022-12-31T21:07:12.659Z,61.16
2022-12-31T21:09:14.397Z,60.66
2022-12-31T21:11:34.684Z,60.72
2022-12-31T21:13:36.470Z,61.09
2022-12-31T21:15:38.079Z,61.12
2022-12-31T21:17:39.927Z,61.51
2022-12-31T21:19:41.593Z,60.46
2022-12-31T21:21:43.245Z,60.96
2022-12-31T21:23:45.101Z,60.97
2022-12-31T21:25:49.931Z,61.40
2022-12-31T21:27:51.632Z,60.54
2022-12-31T21:30:17.722Z,61.27
2022-12-31T21:32:14.823Z,61.05
2022-12-31T21:34:16.488Z,61.29
2022-12-31T21:36:18.141Z,60.47
2022-12-31T21:38:20.297Z,60.28
2022-12-31T21:40:21.940Z,60.69
2022-12-31T21:42:23.900Z,61.30
2022-12-31T21:44:26.375Z,59.99
2022-12-31T21:46:28.786Z,59.76
2022-12-31T21:48:30.841Z,60.31
2022-12-31T21:50:33.447Z,60.27
2022-12-31T21:52:35.418Z,59.88
2022-12-31T21:54:55.489Z,60.24
2022-12-31T21:56:57.796Z,60.59
2022-12-31T21:59:18.032Z,60.81
2022-12-31T22:01:40.784Z,61.87
2022-12-31T22:03:43.754Z,60.87
2022-12-31T22:05:51.556Z,61.37
2022-12-31T22:07:53.121Z,60.03
2022-12-31T22:09:54.703Z,61.01
2022-12-31T22:11:56.676Z,60.52
2022-12-31T22:13:58.707Z,60.99
2022-12-31T22:16:05.397Z,60.59
2022-12-31T22:18:07.488Z,60.14
2022-12-31T22:20:26.979Z,60.00
2022-12-31T22:22:29.339Z,60.91
2022-12-31T22:24:30.995Z,60.85
2022-12-31T22:26:32.905Z,60.57
2022-12-31T22:28:38.587Z,60.29
2022-12-31T22:30:41.215Z,60.05
2022-12-31T22:32:42.991Z,60.68
2022-12-31T22:34:44.649Z,61.21
2022-12-31T22:36:46.630Z,59.74
2022-12-31T22:38:49.882Z,58.98
2022-12-31T22:40:51.863Z,59.89
2022-12-31T22:42:55.229Z,59.30
2022-12-31T22:44:56.854Z,59.91
2022-12-31T22:46:58.535Z,59.43
2022-12-31T22:49:01.574Z,59.70
2022-12-31T22:51:03.611Z,59.71
2022-12-31T22:53:05.144Z,59.41
2022-12-31T22:55:07.809Z,59.43
2022-12-31T22:57:13.380Z,60.17
2022-12-31T22:59:19.461Z,59.35
2022-12-31T23:01:24.069Z,59.17
2022-12-31T23:03:25.783Z,59.29
2022-12-31T23:05:27.486Z,60.32
2022-12-31T23:07:29.069Z,60.02
2022-12-31T23:09:49.127Z,59.80
2022-12-31T23:11:50.878Z,59.40
2022-12-31T23:14:10.910Z,59.90
2022-12-31T23:16:31.216Z,59.74
2022-12-31T23:18:51.631Z,60.58
2022-12-31T23:21:12.144Z,59.68
2022-12-31T23:23:15.701Z,59.73
2022-12-31T23:25:17.406Z,59.77
2022-12-31T23:27:19.089Z,59.42
2022-12-31T23:29:20.749Z,60.30
2022-12-31T23:31:22.742Z,59.38
2022-12-31T23:33:26.025Z,59.78
2022-12-31T23:35:27.923Z,60.35
2022-12-31T23:37:29.693Z,59.80
2022-12-31T23:39:31.606Z,59.88
2022-12-31T23:41:33.312Z,59.75
2022-12-31T23:43:34.873Z,60.19
2022-12-31T23:45:36.549Z,59.92
2022-12-31T23:47:38.192Z,59.86
2022-12-31T23:49:40.002Z,59.45
2022-12-31T23:51:41.688Z,59.32
2022-12-31T23:53:43.298Z,59.57
2022-12-31T23:55:45.184Z,59.95
2022-12-31T23:57:46.796Z,60.80
2022-12-31T23:59:48.461Z,59.85
